SRM243 ENBR-ENSO
Flight info
| Callsign | SRM243 |
|---|---|
| Flight time | 0h 9m |
| Altitude | 7000 |
| Route | STD |
| Aircraft | C25C/M-SDE2E3FGHRWXY/LB1 |
Departure
| Time | 2026-04-29 18:50 |
|---|---|
| Airport | Bergen Airport, Flesland (ENBR) |
Arrival
| Time | 2026-04-29 18:59 |
|---|---|
| Airport | Stord Airport, Sørstokken (ENSO) |
| Time | Latitude | Longitude | Altitude | Speed | Heading |
|---|---|---|---|---|---|
| 2026-04-29 18:37 | 60.29317 | 5.22375 | 164 ft | 0 kts | 350° |
| 2026-04-29 18:47 | 60.29329 | 5.22361 | 163 ft | 12 kts | 315° |
| 2026-04-29 18:47 | 60.29346 | 5.22249 | 159 ft | 9 kts | 347° |
| 2026-04-29 18:47 | 60.29399 | 5.22161 | 154 ft | 12 kts | 253° |
| 2026-04-29 18:47 | 60.29304 | 5.22147 | 158 ft | 19 kts | 168° |
| 2026-04-29 18:48 | 60.29135 | 5.22206 | 166 ft | 30 kts | 171° |
| 2026-04-29 18:48 | 60.28890 | 5.22288 | 164 ft | 42 kts | 172° |
| 2026-04-29 18:48 | 60.28677 | 5.22362 | 161 ft | 22 kts | 170° |
| 2026-04-29 18:48 | 60.28519 | 5.22414 | 157 ft | 24 kts | 171° |
| 2026-04-29 18:49 | 60.28350 | 5.22469 | 153 ft | 23 kts | 169° |
| 2026-04-29 18:49 | 60.28281 | 5.22387 | 149 ft | 11 kts | 259° |
| 2026-04-29 18:49 | 60.28304 | 5.22181 | 148 ft | 20 kts | 316° |
| 2026-04-29 18:49 | 60.28510 | 5.22094 | 152 ft | 70 kts | 350° |
| 2026-04-29 18:50 | 60.29366 | 5.21826 | 234 ft | 172 kts | 349° |
| 2026-04-29 18:50 | 60.30680 | 5.21345 | 1340 ft | 217 kts | 351° |
| 2026-04-29 18:50 | 60.32330 | 5.20875 | 2632 ft | 258 kts | 353° |
| 2026-04-29 18:50 | 60.33986 | 5.19317 | 4074 ft | 292 kts | 296° |
| 2026-04-29 18:51 | 60.32486 | 5.17970 | 3461 ft | 367 kts | 159° |
| 2026-04-29 18:51 | 60.30627 | 5.19146 | 6307 ft | 157 kts | 169° |
| 2026-04-29 18:51 | 60.29298 | 5.19700 | 7529 ft | 236 kts | 170° |
| 2026-04-29 18:51 | 60.27330 | 5.20482 | 7112 ft | 335 kts | 170° |
| 2026-04-29 18:52 | 60.24921 | 5.21406 | 7537 ft | 366 kts | 170° |
| 2026-04-29 18:52 | 60.22783 | 5.22189 | 9009 ft | 300 kts | 171° |
| 2026-04-29 18:52 | 60.20711 | 5.22898 | 9954 ft | 300 kts | 172° |
| 2026-04-29 18:52 | 60.18712 | 5.23514 | 11007 ft | 278 kts | 174° |
| 2026-04-29 18:53 | 60.16753 | 5.23897 | 10752 ft | 300 kts | 179° |
| 2026-04-29 18:53 | 60.14561 | 5.23988 | 10477 ft | 324 kts | 182° |
| 2026-04-29 18:53 | 60.12307 | 5.23846 | 10654 ft | 327 kts | 184° |
| 2026-04-29 18:53 | 60.09932 | 5.23801 | 9959 ft | 355 kts | 183° |
| 2026-04-29 18:54 | 60.07489 | 5.23580 | 9597 ft | 345 kts | 186° |
| 2026-04-29 18:54 | 60.05254 | 5.23329 | 9081 ft | 311 kts | 184° |
| 2026-04-29 18:54 | 60.03140 | 5.23094 | 8361 ft | 297 kts | 188° |
| 2026-04-29 18:54 | 60.01216 | 5.22282 | 8236 ft | 269 kts | 195° |
| 2026-04-29 18:55 | 59.99498 | 5.21375 | 7956 ft | 248 kts | 198° |
| 2026-04-29 18:55 | 59.97674 | 5.20395 | 7052 ft | 278 kts | 197° |
| 2026-04-29 18:55 | 59.95863 | 5.19337 | 7196 ft | 264 kts | 197° |
| 2026-04-29 18:55 | 59.94049 | 5.18962 | 7151 ft | 265 kts | 178° |
| 2026-04-29 18:56 | 59.92204 | 5.19133 | 7082 ft | 266 kts | 180° |
| 2026-04-29 18:56 | 59.90344 | 5.19120 | 6896 ft | 270 kts | 181° |
| 2026-04-29 18:56 | 59.88403 | 5.19489 | 5610 ft | 295 kts | 165° |
| 2026-04-29 18:56 | 59.86669 | 5.20952 | 5021 ft | 255 kts | 155° |
| 2026-04-29 18:57 | 59.85234 | 5.22506 | 4846 ft | 215 kts | 149° |
| 2026-04-29 18:57 | 59.84186 | 5.24618 | 3811 ft | 222 kts | 125° |
| 2026-04-29 18:57 | 59.83411 | 5.26894 | 3206 ft | 166 kts | 124° |
| 2026-04-29 18:57 | 59.82744 | 5.28523 | 2359 ft | 146 kts | 132° |
| 2026-04-29 18:58 | 59.81998 | 5.29880 | 1504 ft | 143 kts | 140° |
| 2026-04-29 18:58 | 59.81222 | 5.31029 | 880 ft | 139 kts | 144° |
| 2026-04-29 18:58 | 59.80495 | 5.32208 | 494 ft | 125 kts | 142° |
| 2026-04-29 18:58 | 59.79832 | 5.33194 | 225 ft | 113 kts | 146° |
| 2026-04-29 18:59 | 59.79262 | 5.33996 | 162 ft | 76 kts | 146° |
| 2026-04-29 18:59 | 59.78907 | 5.34483 | 154 ft | 66 kts | 145° |
| 2026-04-29 18:59 | 59.78466 | 5.35051 | 33 ft | 24 kts | 187° |
| 2026-04-29 18:59 | 59.78477 | 5.35044 | 27 ft | 0 kts | 293° |